Aviation Digital Data Service (ADDS)

Output produced by METARs form (1138 UTC 18 April 2015)
found at http://www.aviationweather.gov/adds/metars/
 
KLNS 181053Z 29004KT 4SM BR CLR 09/07 A3002 RMK AO2 SLP165 T00890072
KLNS 181133Z 1812/1912 30004KT P6SM FEW250 
     FM181700 30009KT P6SM SCT070 
     FM182300 36005KT P6SM SKC